sensor_id;sensor_type;location;lat;lon;timestamp;P1;durP1;ratioP1;P2;durP2;ratioP2
34359;SDS011;20624;55.870;26.506;2023-02-15T00:01:57;5.43;;;2.58;;
34359;SDS011;20624;55.870;26.506;2023-02-15T00:04:25;4.43;;;2.17;;
34359;SDS011;20624;55.870;26.506;2023-02-15T00:07:14;5.80;;;2.15;;
34359;SDS011;20624;55.870;26.506;2023-02-15T00:09:42;5.25;;;2.20;;
34359;SDS011;20624;55.870;26.506;2023-02-15T00:12:09;5.20;;;2.38;;
34359;SDS011;20624;55.870;26.506;2023-02-15T00:14:37;7.05;;;2.53;;
34359;SDS011;20624;55.870;26.506;2023-02-15T00:17:05;5.28;;;2.50;;
34359;SDS011;20624;55.870;26.506;2023-02-15T00:19:32;5.32;;;2.40;;
34359;SDS011;20624;55.870;26.506;2023-02-15T00:22:00;4.75;;;2.22;;
34359;SDS011;20624;55.870;26.506;2023-02-15T00:24:28;5.40;;;2.38;;
34359;SDS011;20624;55.870;26.506;2023-02-15T00:26:55;4.93;;;2.20;;
34359;SDS011;20624;55.870;26.506;2023-02-15T00:29:23;5.40;;;2.28;;
34359;SDS011;20624;55.870;26.506;2023-02-15T00:31:51;4.68;;;2.63;;
34359;SDS011;20624;55.870;26.506;2023-02-15T00:34:21;5.88;;;2.22;;
34359;SDS011;20624;55.870;26.506;2023-02-15T00:36:49;4.65;;;2.20;;
34359;SDS011;20624;55.870;26.506;2023-02-15T00:39:17;6.15;;;2.35;;
34359;SDS011;20624;55.870;26.506;2023-02-15T00:41:45;4.93;;;2.10;;
34359;SDS011;20624;55.870;26.506;2023-02-15T00:44:13;4.88;;;2.20;;
34359;SDS011;20624;55.870;26.506;2023-02-15T00:46:41;6.05;;;2.22;;
34359;SDS011;20624;55.870;26.506;2023-02-15T00:49:09;4.10;;;1.60;;
34359;SDS011;20624;55.870;26.506;2023-02-15T00:51:37;5.75;;;1.77;;
34359;SDS011;20624;55.870;26.506;2023-02-15T00:54:06;4.68;;;1.70;;
34359;SDS011;20624;55.870;26.506;2023-02-15T00:56:33;6.68;;;2.20;;
34359;SDS011;20624;55.870;26.506;2023-02-15T00:59:01;5.80;;;2.25;;
34359;SDS011;20624;55.870;26.506;2023-02-15T01:01:29;4.28;;;1.85;;
34359;SDS011;20624;55.870;26.506;2023-02-15T01:03:57;4.25;;;1.90;;
34359;SDS011;20624;55.870;26.506;2023-02-15T01:06:25;4.60;;;1.98;;
34359;SDS011;20624;55.870;26.506;2023-02-15T01:08:53;4.78;;;2.05;;
34359;SDS011;20624;55.870;26.506;2023-02-15T01:11:21;5.72;;;2.08;;
34359;SDS011;20624;55.870;26.506;2023-02-15T01:13:56;4.63;;;1.80;;
34359;SDS011;20624;55.870;26.506;2023-02-15T01:16:25;5.60;;;2.28;;
34359;SDS011;20624;55.870;26.506;2023-02-15T01:18:54;4.70;;;2.25;;
34359;SDS011;20624;55.870;26.506;2023-02-15T01:21:22;4.80;;;1.92;;
34359;SDS011;20624;55.870;26.506;2023-02-15T01:23:50;3.72;;;1.80;;
34359;SDS011;20624;55.870;26.506;2023-02-15T01:26:18;2.92;;;1.65;;
34359;SDS011;20624;55.870;26.506;2023-02-15T01:28:47;2.97;;;1.42;;
34359;SDS011;20624;55.870;26.506;2023-02-15T01:31:16;4.38;;;1.63;;
34359;SDS011;20624;55.870;26.506;2023-02-15T01:33:44;3.97;;;1.70;;
34359;SDS011;20624;55.870;26.506;2023-02-15T01:36:11;4.47;;;1.98;;
34359;SDS011;20624;55.870;26.506;2023-02-15T01:38:39;3.78;;;1.55;;
34359;SDS011;20624;55.870;26.506;2023-02-15T01:41:08;3.80;;;1.88;;
34359;SDS011;20624;55.870;26.506;2023-02-15T01:43:53;3.95;;;1.80;;
34359;SDS011;20624;55.870;26.506;2023-02-15T01:49:20;2.60;;;1.42;;
34359;SDS011;20624;55.870;26.506;2023-02-15T01:51:53;5.10;;;1.95;;
34359;SDS011;20624;55.870;26.506;2023-02-15T01:54:25;2.78;;;1.33;;
34359;SDS011;20624;55.870;26.506;2023-02-15T01:56:55;2.70;;;1.42;;
34359;SDS011;20624;55.870;26.506;2023-02-15T01:59:25;3.22;;;1.40;;
34359;SDS011;20624;55.870;26.506;2023-02-15T02:01:53;3.60;;;1.30;;
34359;SDS011;20624;55.870;26.506;2023-02-15T02:04:26;3.10;;;1.40;;
34359;SDS011;20624;55.870;26.506;2023-02-15T02:06:55;3.65;;;1.63;;
34359;SDS011;20624;55.870;26.506;2023-02-15T02:09:25;3.15;;;1.52;;
34359;SDS011;20624;55.870;26.506;2023-02-15T02:11:53;2.72;;;1.40;;
34359;SDS011;20624;55.870;26.506;2023-02-15T02:14:21;3.65;;;1.20;;
34359;SDS011;20624;55.870;26.506;2023-02-15T02:22:00;3.58;;;1.40;;
34359;SDS011;20624;55.870;26.506;2023-02-15T02:24:58;3.63;;;1.45;;
34359;SDS011;20624;55.870;26.506;2023-02-15T02:27:34;4.88;;;1.52;;
34359;SDS011;20624;55.870;26.506;2023-02-15T02:43:25;4.53;;;1.35;;
34359;SDS011;20624;55.870;26.506;2023-02-15T02:46:12;3.22;;;1.30;;
34359;SDS011;20624;55.870;26.506;2023-02-15T02:48:41;3.38;;;1.58;;
34359;SDS011;20624;55.870;26.506;2023-02-15T02:51:09;4.43;;;1.65;;
34359;SDS011;20624;55.870;26.506;2023-02-15T02:53:37;2.40;;;1.20;;
34359;SDS011;20624;55.870;26.506;2023-02-15T02:56:06;3.00;;;1.25;;
34359;SDS011;20624;55.870;26.506;2023-02-15T02:58:39;3.92;;;1.48;;
34359;SDS011;20624;55.870;26.506;2023-02-15T03:01:20;2.97;;;1.10;;
34359;SDS011;20624;55.870;26.506;2023-02-15T03:04:13;3.05;;;1.42;;
34359;SDS011;20624;55.870;26.506;2023-02-15T03:06:46;3.63;;;1.20;;
34359;SDS011;20624;55.870;26.506;2023-02-15T03:12:10;5.07;;;1.98;;
34359;SDS011;20624;55.870;26.506;2023-02-15T03:14:44;2.75;;;1.52;;
34359;SDS011;20624;55.870;26.506;2023-02-15T03:17:21;3.28;;;1.05;;
34359;SDS011;20624;55.870;26.506;2023-02-15T03:19:52;2.80;;;1.02;;
34359;SDS011;20624;55.870;26.506;2023-02-15T03:22:34;2.47;;;1.20;;
34359;SDS011;20624;55.870;26.506;2023-02-15T03:25:10;2.08;;;0.98;;
34359;SDS011;20624;55.870;26.506;2023-02-15T03:27:45;3.22;;;1.30;;
34359;SDS011;20624;55.870;26.506;2023-02-15T03:30:15;3.03;;;1.10;;
34359;SDS011;20624;55.870;26.506;2023-02-15T03:32:46;3.70;;;1.23;;
34359;SDS011;20624;55.870;26.506;2023-02-15T03:35:15;2.75;;;1.10;;
34359;SDS011;20624;55.870;26.506;2023-02-15T03:37:50;2.72;;;1.23;;
34359;SDS011;20624;55.870;26.506;2023-02-15T03:43:23;4.22;;;1.20;;
34359;SDS011;20624;55.870;26.506;2023-02-15T03:46:10;3.47;;;0.90;;
34359;SDS011;20624;55.870;26.506;2023-02-15T03:48:43;2.10;;;1.00;;
34359;SDS011;20624;55.870;26.506;2023-02-15T03:51:13;1.77;;;0.75;;
34359;SDS011;20624;55.870;26.506;2023-02-15T03:56:31;4.00;;;1.10;;
34359;SDS011;20624;55.870;26.506;2023-02-15T03:59:00;3.15;;;1.30;;
34359;SDS011;20624;55.870;26.506;2023-02-15T04:04:32;4.13;;;1.30;;
34359;SDS011;20624;55.870;26.506;2023-02-15T04:07:01;2.63;;;1.00;;
34359;SDS011;20624;55.870;26.506;2023-02-15T04:09:30;2.20;;;0.80;;
34359;SDS011;20624;55.870;26.506;2023-02-15T04:12:16;3.08;;;1.08;;
34359;SDS011;20624;55.870;26.506;2023-02-15T04:14:44;2.60;;;1.20;;
34359;SDS011;20624;55.870;26.506;2023-02-15T04:17:30;4.93;;;1.45;;
34359;SDS011;20624;55.870;26.506;2023-02-15T04:19:58;4.32;;;1.35;;
34359;SDS011;20624;55.870;26.506;2023-02-15T04:22:44;2.38;;;0.90;;
34359;SDS011;20624;55.870;26.506;2023-02-15T04:25:31;2.83;;;0.82;;
34359;SDS011;20624;55.870;26.506;2023-02-15T04:28:00;3.33;;;1.05;;
34359;SDS011;20624;55.870;26.506;2023-02-15T04:30:28;3.05;;;1.02;;
34359;SDS011;20624;55.870;26.506;2023-02-15T04:32:56;4.07;;;1.40;;
34359;SDS011;20624;55.870;26.506;2023-02-15T04:35:23;2.72;;;1.00;;
34359;SDS011;20624;55.870;26.506;2023-02-15T04:37:52;3.45;;;1.15;;
34359;SDS011;20624;55.870;26.506;2023-02-15T04:40:19;3.33;;;1.10;;
34359;SDS011;20624;55.870;26.506;2023-02-15T04:42:47;2.17;;;1.05;;
34359;SDS011;20624;55.870;26.506;2023-02-15T04:45:15;2.80;;;1.02;;
34359;SDS011;20624;55.870;26.506;2023-02-15T04:47:44;1.58;;;0.70;;
34359;SDS011;20624;55.870;26.506;2023-02-15T04:50:11;2.33;;;1.15;;
34359;SDS011;20624;55.870;26.506;2023-02-15T04:52:39;2.78;;;1.10;;
34359;SDS011;20624;55.870;26.506;2023-02-15T04:55:07;3.00;;;1.15;;
34359;SDS011;20624;55.870;26.506;2023-02-15T04:57:35;3.35;;;1.00;;
34359;SDS011;20624;55.870;26.506;2023-02-15T05:00:02;4.57;;;1.42;;
34359;SDS011;20624;55.870;26.506;2023-02-15T05:02:31;4.10;;;1.10;;
34359;SDS011;20624;55.870;26.506;2023-02-15T05:04:58;4.13;;;1.25;;
34359;SDS011;20624;55.870;26.506;2023-02-15T05:07:26;3.08;;;1.27;;
34359;SDS011;20624;55.870;26.506;2023-02-15T05:09:53;3.97;;;1.35;;
34359;SDS011;20624;55.870;26.506;2023-02-15T05:12:21;6.00;;;1.48;;
34359;SDS011;20624;55.870;26.506;2023-02-15T05:14:49;4.25;;;1.35;;
34359;SDS011;20624;55.870;26.506;2023-02-15T05:17:17;3.45;;;1.20;;
34359;SDS011;20624;55.870;26.506;2023-02-15T05:19:44;4.43;;;1.30;;
34359;SDS011;20624;55.870;26.506;2023-02-15T05:22:12;7.13;;;1.83;;
34359;SDS011;20624;55.870;26.506;2023-02-15T05:24:40;4.10;;;1.33;;
34359;SDS011;20624;55.870;26.506;2023-02-15T05:27:27;4.30;;;1.30;;
34359;SDS011;20624;55.870;26.506;2023-02-15T05:30:13;4.97;;;1.67;;
34359;SDS011;20624;55.870;26.506;2023-02-15T05:32:41;9.98;;;2.25;;
34359;SDS011;20624;55.870;26.506;2023-02-15T05:35:13;4.60;;;1.35;;
34359;SDS011;20624;55.870;26.506;2023-02-15T05:37:41;9.07;;;2.03;;
34359;SDS011;20624;55.870;26.506;2023-02-15T05:40:09;6.75;;;1.90;;
34359;SDS011;20624;55.870;26.506;2023-02-15T05:42:37;4.10;;;1.33;;
34359;SDS011;20624;55.870;26.506;2023-02-15T05:45:05;8.20;;;1.98;;
34359;SDS011;20624;55.870;26.506;2023-02-15T05:47:32;10.57;;;2.25;;
34359;SDS011;20624;55.870;26.506;2023-02-15T05:50:00;5.97;;;1.58;;
34359;SDS011;20624;55.870;26.506;2023-02-15T05:52:28;6.30;;;1.60;;
34359;SDS011;20624;55.870;26.506;2023-02-15T05:54:56;4.82;;;1.38;;
34359;SDS011;20624;55.870;26.506;2023-02-15T05:57:24;5.75;;;1.67;;
34359;SDS011;20624;55.870;26.506;2023-02-15T05:59:52;11.13;;;2.45;;
34359;SDS011;20624;55.870;26.506;2023-02-15T06:02:19;8.18;;;2.33;;
34359;SDS011;20624;55.870;26.506;2023-02-15T06:04:47;14.73;;;3.05;;
34359;SDS011;20624;55.870;26.506;2023-02-15T06:07:15;6.47;;;1.63;;
34359;SDS011;20624;55.870;26.506;2023-02-15T06:09:42;8.27;;;1.90;;
34359;SDS011;20624;55.870;26.506;2023-02-15T06:12:10;5.35;;;1.55;;
34359;SDS011;20624;55.870;26.506;2023-02-15T06:14:38;9.15;;;2.35;;
34359;SDS011;20624;55.870;26.506;2023-02-15T06:17:05;16.60;;;3.35;;
34359;SDS011;20624;55.870;26.506;2023-02-15T06:19:33;13.38;;;3.05;;
34359;SDS011;20624;55.870;26.506;2023-02-15T06:22:00;6.18;;;1.67;;
34359;SDS011;20624;55.870;26.506;2023-02-15T06:24:28;13.63;;;2.72;;
34359;SDS011;20624;55.870;26.506;2023-02-15T06:26:56;9.32;;;2.05;;
34359;SDS011;20624;55.870;26.506;2023-02-15T06:29:24;13.00;;;2.47;;
34359;SDS011;20624;55.870;26.506;2023-02-15T06:31:52;7.22;;;1.83;;
34359;SDS011;20624;55.870;26.506;2023-02-15T06:34:20;8.25;;;1.92;;
34359;SDS011;20624;55.870;26.506;2023-02-15T06:36:48;16.02;;;3.10;;
34359;SDS011;20624;55.870;26.506;2023-02-15T06:39:15;13.45;;;2.47;;
34359;SDS011;20624;55.870;26.506;2023-02-15T06:41:43;12.88;;;2.63;;
34359;SDS011;20624;55.870;26.506;2023-02-15T06:44:11;7.43;;;1.83;;
34359;SDS011;20624;55.870;26.506;2023-02-15T06:46:38;19.02;;;3.70;;
34359;SDS011;20624;55.870;26.506;2023-02-15T06:49:06;12.38;;;2.47;;
34359;SDS011;20624;55.870;26.506;2023-02-15T06:51:34;12.32;;;2.72;;
34359;SDS011;20624;55.870;26.506;2023-02-15T06:54:02;21.20;;;3.85;;
34359;SDS011;20624;55.870;26.506;2023-02-15T06:56:29;9.45;;;2.03;;
34359;SDS011;20624;55.870;26.506;2023-02-15T06:58:57;15.25;;;3.08;;
34359;SDS011;20624;55.870;26.506;2023-02-15T07:01:25;10.45;;;1.90;;
34359;SDS011;20624;55.870;26.506;2023-02-15T07:03:53;14.55;;;2.92;;
34359;SDS011;20624;55.870;26.506;2023-02-15T07:06:21;23.92;;;4.32;;
34359;SDS011;20624;55.870;26.506;2023-02-15T07:08:48;15.50;;;2.78;;
34359;SDS011;20624;55.870;26.506;2023-02-15T07:11:16;12.57;;;2.67;;
34359;SDS011;20624;55.870;26.506;2023-02-15T07:14:02;23.33;;;4.53;;
34359;SDS011;20624;55.870;26.506;2023-02-15T07:16:30;15.48;;;3.13;;
34359;SDS011;20624;55.870;26.506;2023-02-15T07:18:58;15.40;;;2.90;;
34359;SDS011;20624;55.870;26.506;2023-02-15T07:21:27;10.48;;;2.17;;
34359;SDS011;20624;55.870;26.506;2023-02-15T07:23:56;13.75;;;2.88;;
34359;SDS011;20624;55.870;26.506;2023-02-15T07:26:26;12.45;;;2.90;;
34359;SDS011;20624;55.870;26.506;2023-02-15T07:28:54;11.65;;;3.03;;
34359;SDS011;20624;55.870;26.506;2023-02-15T07:31:23;12.50;;;3.17;;
34359;SDS011;20624;55.870;26.506;2023-02-15T07:33:50;15.95;;;3.90;;
34359;SDS011;20624;55.870;26.506;2023-02-15T07:36:19;11.77;;;3.47;;
34359;SDS011;20624;55.870;26.506;2023-02-15T07:38:47;17.15;;;4.47;;
34359;SDS011;20624;55.870;26.506;2023-02-15T07:41:14;16.90;;;4.38;;
34359;SDS011;20624;55.870;26.506;2023-02-15T07:43:43;14.85;;;3.85;;
34359;SDS011;20624;55.870;26.506;2023-02-15T07:46:12;20.17;;;5.25;;
34359;SDS011;20624;55.870;26.506;2023-02-15T07:48:44;18.63;;;4.22;;
34359;SDS011;20624;55.870;26.506;2023-02-15T07:51:11;13.65;;;3.60;;
34359;SDS011;20624;55.870;26.506;2023-02-15T07:53:42;23.40;;;5.18;;
34359;SDS011;20624;55.870;26.506;2023-02-15T07:56:11;14.80;;;3.75;;
34359;SDS011;20624;55.870;26.506;2023-02-15T07:58:39;17.75;;;4.55;;
34359;SDS011;20624;55.870;26.506;2023-02-15T08:03:49;18.48;;;4.57;;
34359;SDS011;20624;55.870;26.506;2023-02-15T08:06:17;13.10;;;3.55;;
34359;SDS011;20624;55.870;26.506;2023-02-15T08:08:45;18.52;;;4.28;;
34359;SDS011;20624;55.870;26.506;2023-02-15T08:11:15;15.40;;;3.45;;
34359;SDS011;20624;55.870;26.506;2023-02-15T08:14:15;11.52;;;3.60;;
34359;SDS011;20624;55.870;26.506;2023-02-15T08:16:50;10.93;;;3.35;;
34359;SDS011;20624;55.870;26.506;2023-02-15T08:19:26;14.65;;;3.65;;
34359;SDS011;20624;55.870;26.506;2023-02-15T08:21:55;12.73;;;3.30;;
34359;SDS011;20624;55.870;26.506;2023-02-15T08:24:26;17.08;;;4.00;;
34359;SDS011;20624;55.870;26.506;2023-02-15T08:26:56;14.90;;;3.72;;
34359;SDS011;20624;55.870;26.506;2023-02-15T08:29:26;20.17;;;4.95;;
34359;SDS011;20624;55.870;26.506;2023-02-15T08:31:55;22.40;;;4.82;;
34359;SDS011;20624;55.870;26.506;2023-02-15T08:34:29;24.40;;;5.07;;
34359;SDS011;20624;55.870;26.506;2023-02-15T08:36:57;19.73;;;4.53;;
34359;SDS011;20624;55.870;26.506;2023-02-15T08:39:25;14.90;;;4.18;;
34359;SDS011;20624;55.870;26.506;2023-02-15T08:41:53;23.83;;;5.38;;
34359;SDS011;20624;55.870;26.506;2023-02-15T08:44:23;22.38;;;4.93;;
34359;SDS011;20624;55.870;26.506;2023-02-15T08:46:51;22.27;;;4.88;;
34359;SDS011;20624;55.870;26.506;2023-02-15T08:49:20;11.93;;;3.53;;
34359;SDS011;20624;55.870;26.506;2023-02-15T08:51:48;17.38;;;4.53;;
34359;SDS011;20624;55.870;26.506;2023-02-15T08:54:17;30.92;;;6.07;;
34359;SDS011;20624;55.870;26.506;2023-02-15T08:56:45;20.75;;;4.72;;
34359;SDS011;20624;55.870;26.506;2023-02-15T08:59:15;17.85;;;3.92;;
34359;SDS011;20624;55.870;26.506;2023-02-15T09:01:44;11.77;;;3.60;;
34359;SDS011;20624;55.870;26.506;2023-02-15T09:04:13;20.10;;;4.43;;
34359;SDS011;20624;55.870;26.506;2023-02-15T09:06:44;20.13;;;4.32;;
34359;SDS011;20624;55.870;26.506;2023-02-15T09:09:14;18.73;;;4.18;;
34359;SDS011;20624;55.870;26.506;2023-02-15T09:11:42;15.65;;;3.97;;
34359;SDS011;20624;55.870;26.506;2023-02-15T09:16:41;16.63;;;3.97;;
34359;SDS011;20624;55.870;26.506;2023-02-15T09:19:11;20.98;;;4.45;;
34359;SDS011;20624;55.870;26.506;2023-02-15T09:21:39;25.70;;;5.28;;
34359;SDS011;20624;55.870;26.506;2023-02-15T09:24:08;19.42;;;4.25;;
34359;SDS011;20624;55.870;26.506;2023-02-15T09:26:38;21.98;;;4.78;;
34359;SDS011;20624;55.870;26.506;2023-02-15T09:29:07;26.58;;;6.15;;
34359;SDS011;20624;55.870;26.506;2023-02-15T09:31:39;13.27;;;3.42;;
34359;SDS011;20624;55.870;26.506;2023-02-15T09:34:11;21.60;;;4.40;;
34359;SDS011;20624;55.870;26.506;2023-02-15T09:36:42;15.25;;;3.60;;
34359;SDS011;20624;55.870;26.506;2023-02-15T09:39:14;11.25;;;2.60;;
34359;SDS011;20624;55.870;26.506;2023-02-15T09:56:39;14.75;;;3.42;;
34359;SDS011;20624;55.870;26.506;2023-02-15T09:59:17;11.50;;;3.08;;
34359;SDS011;20624;55.870;26.506;2023-02-15T10:13:21;13.23;;;3.05;;
34359;SDS011;20624;55.870;26.506;2023-02-15T10:18:40;29.15;;;5.30;;
34359;SDS011;20624;55.870;26.506;2023-02-15T10:21:23;15.35;;;3.70;;
34359;SDS011;20624;55.870;26.506;2023-02-15T10:26:53;15.57;;;3.45;;
34359;SDS011;20624;55.870;26.506;2023-02-15T10:29:35;11.45;;;2.85;;
34359;SDS011;20624;55.870;26.506;2023-02-15T10:41:17;25.48;;;4.82;;
34359;SDS011;20624;55.870;26.506;2023-02-15T10:46:20;17.55;;;3.53;;
34359;SDS011;20624;55.870;26.506;2023-02-15T10:56:54;18.58;;;4.13;;
34359;SDS011;20624;55.870;26.506;2023-02-15T11:02:31;16.70;;;3.60;;
34359;SDS011;20624;55.870;26.506;2023-02-15T11:07:49;18.98;;;3.85;;
34359;SDS011;20624;55.870;26.506;2023-02-15T11:13:07;23.42;;;4.60;;
34359;SDS011;20624;55.870;26.506;2023-02-15T11:15:51;23.30;;;4.85;;
34359;SDS011;20624;55.870;26.506;2023-02-15T11:19:13;9.00;;;2.20;;
34359;SDS011;20624;55.870;26.506;2023-02-15T11:21:37;18.52;;;4.07;;
34359;SDS011;20624;55.870;26.506;2023-02-15T11:24:09;13.57;;;2.97;;
34359;SDS011;20624;55.870;26.506;2023-02-15T11:26:43;13.52;;;3.08;;
34359;SDS011;20624;55.870;26.506;2023-02-15T11:32:12;12.50;;;2.65;;
34359;SDS011;20624;55.870;26.506;2023-02-15T11:37:46;8.95;;;2.45;;
34359;SDS011;20624;55.870;26.506;2023-02-15T11:42:57;11.45;;;2.58;;
34359;SDS011;20624;55.870;26.506;2023-02-15T11:45:30;15.75;;;3.30;;
34359;SDS011;20624;55.870;26.506;2023-02-15T11:48:00;12.25;;;2.72;;
34359;SDS011;20624;55.870;26.506;2023-02-15T11:50:35;26.27;;;5.10;;
34359;SDS011;20624;55.870;26.506;2023-02-15T11:53:04;15.00;;;3.13;;
34359;SDS011;20624;55.870;26.506;2023-02-15T11:55:39;22.77;;;4.28;;
34359;SDS011;20624;55.870;26.506;2023-02-15T12:01:02;12.23;;;2.95;;
34359;SDS011;20624;55.870;26.506;2023-02-15T12:06:11;16.52;;;3.42;;
34359;SDS011;20624;55.870;26.506;2023-02-15T12:08:51;12.35;;;2.75;;
34359;SDS011;20624;55.870;26.506;2023-02-15T12:11:37;7.47;;;1.88;;
34359;SDS011;20624;55.870;26.506;2023-02-15T12:14:07;10.95;;;2.63;;
34359;SDS011;20624;55.870;26.506;2023-02-15T12:19:21;8.73;;;2.00;;
34359;SDS011;20624;55.870;26.506;2023-02-15T12:22:04;14.68;;;3.10;;
34359;SDS011;20624;55.870;26.506;2023-02-15T12:24:37;7.85;;;2.00;;
34359;SDS011;20624;55.870;26.506;2023-02-15T12:27:15;10.55;;;2.55;;
34359;SDS011;20624;55.870;26.506;2023-02-15T12:30:07;10.50;;;2.45;;
34359;SDS011;20624;55.870;26.506;2023-02-15T12:33:14;17.45;;;3.83;;
34359;SDS011;20624;55.870;26.506;2023-02-15T12:35:57;10.07;;;2.38;;
34359;SDS011;20624;55.870;26.506;2023-02-15T12:44:28;12.55;;;3.08;;
34359;SDS011;20624;55.870;26.506;2023-02-15T12:47:02;10.50;;;2.67;;
34359;SDS011;20624;55.870;26.506;2023-02-15T12:49:31;10.02;;;2.28;;
34359;SDS011;20624;55.870;26.506;2023-02-15T12:54:54;14.50;;;3.00;;
34359;SDS011;20624;55.870;26.506;2023-02-15T12:57:35;11.75;;;2.50;;
34359;SDS011;20624;55.870;26.506;2023-02-15T13:02:46;11.13;;;2.22;;
34359;SDS011;20624;55.870;26.506;2023-02-15T13:07:59;9.95;;;2.22;;
34359;SDS011;20624;55.870;26.506;2023-02-15T13:10:39;10.30;;;2.30;;
34359;SDS011;20624;55.870;26.506;2023-02-15T13:13:29;8.85;;;2.05;;
34359;SDS011;20624;55.870;26.506;2023-02-15T13:15:59;19.45;;;3.80;;
34359;SDS011;20624;55.870;26.506;2023-02-15T13:18:39;19.05;;;3.80;;
34359;SDS011;20624;55.870;26.506;2023-02-15T13:21:18;15.77;;;3.10;;
34359;SDS011;20624;55.870;26.506;2023-02-15T13:27:15;16.73;;;3.40;;
34359;SDS011;20624;55.870;26.506;2023-02-15T13:29:51;16.98;;;3.38;;
34359;SDS011;20624;55.870;26.506;2023-02-15T13:34:58;19.92;;;3.97;;
34359;SDS011;20624;55.870;26.506;2023-02-15T13:40:22;15.57;;;3.33;;
34359;SDS011;20624;55.870;26.506;2023-02-15T13:43:05;15.80;;;3.17;;
34359;SDS011;20624;55.870;26.506;2023-02-15T13:45:47;20.02;;;4.38;;
34359;SDS011;20624;55.870;26.506;2023-02-15T13:48:40;17.27;;;3.47;;
34359;SDS011;20624;55.870;26.506;2023-02-15T13:54:26;16.83;;;3.50;;
34359;SDS011;20624;55.870;26.506;2023-02-15T14:00:20;17.48;;;3.50;;
34359;SDS011;20624;55.870;26.506;2023-02-15T14:03:12;11.73;;;2.80;;
34359;SDS011;20624;55.870;26.506;2023-02-15T14:06:08;11.57;;;2.22;;
34359;SDS011;20624;55.870;26.506;2023-02-15T14:11:37;11.82;;;2.50;;
34359;SDS011;20624;55.870;26.506;2023-02-15T14:16:41;11.68;;;2.53;;
34359;SDS011;20624;55.870;26.506;2023-02-15T14:25:18;17.08;;;3.63;;
34359;SDS011;20624;55.870;26.506;2023-02-15T14:30:49;11.52;;;2.50;;
34359;SDS011;20624;55.870;26.506;2023-02-15T14:36:04;14.68;;;2.92;;
34359;SDS011;20624;55.870;26.506;2023-02-15T14:41:09;8.90;;;1.85;;
34359;SDS011;20624;55.870;26.506;2023-02-15T14:44:08;18.45;;;3.70;;
34359;SDS011;20624;55.870;26.506;2023-02-15T14:46:57;12.85;;;2.72;;
34359;SDS011;20624;55.870;26.506;2023-02-15T14:49:45;17.05;;;3.45;;
34359;SDS011;20624;55.870;26.506;2023-02-15T14:52:13;9.38;;;1.95;;
34359;SDS011;20624;55.870;26.506;2023-02-15T15:07:48;18.08;;;2.83;;
34359;SDS011;20624;55.870;26.506;2023-02-15T15:18:00;17.30;;;3.38;;
34359;SDS011;20624;55.870;26.506;2023-02-15T15:37:37;20.73;;;3.83;;
34359;SDS011;20624;55.870;26.506;2023-02-15T15:43:19;9.18;;;2.13;;
34359;SDS011;20624;55.870;26.506;2023-02-15T15:46:13;11.35;;;2.30;;
34359;SDS011;20624;55.870;26.506;2023-02-15T15:49:07;15.00;;;2.83;;
34359;SDS011;20624;55.870;26.506;2023-02-15T15:51:39;8.18;;;1.92;;
34359;SDS011;20624;55.870;26.506;2023-02-15T15:54:12;10.90;;;2.50;;
34359;SDS011;20624;55.870;26.506;2023-02-15T15:56:47;5.45;;;1.45;;
34359;SDS011;20624;55.870;26.506;2023-02-15T15:59:25;10.48;;;2.25;;
34359;SDS011;20624;55.870;26.506;2023-02-15T16:01:55;19.45;;;3.80;;
34359;SDS011;20624;55.870;26.506;2023-02-15T16:04:31;8.55;;;2.00;;
34359;SDS011;20624;55.870;26.506;2023-02-15T16:07:13;8.40;;;1.85;;
34359;SDS011;20624;55.870;26.506;2023-02-15T16:09:41;6.80;;;1.75;;
34359;SDS011;20624;55.870;26.506;2023-02-15T16:12:13;9.30;;;2.33;;
34359;SDS011;20624;55.870;26.506;2023-02-15T16:14:48;8.20;;;1.80;;
34359;SDS011;20624;55.870;26.506;2023-02-15T16:17:20;13.82;;;2.88;;
34359;SDS011;20624;55.870;26.506;2023-02-15T16:19:50;15.18;;;3.17;;
34359;SDS011;20624;55.870;26.506;2023-02-15T16:22:19;16.63;;;3.22;;
34359;SDS011;20624;55.870;26.506;2023-02-15T16:27:46;13.48;;;2.90;;
34359;SDS011;20624;55.870;26.506;2023-02-15T16:30:25;14.88;;;3.03;;
34359;SDS011;20624;55.870;26.506;2023-02-15T16:33:05;14.63;;;3.08;;
34359;SDS011;20624;55.870;26.506;2023-02-15T16:35:35;9.15;;;2.05;;
34359;SDS011;20624;55.870;26.506;2023-02-15T16:38:04;7.03;;;1.73;;
34359;SDS011;20624;55.870;26.506;2023-02-15T16:40:37;6.95;;;1.75;;
34359;SDS011;20624;55.870;26.506;2023-02-15T16:43:16;11.07;;;2.63;;
34359;SDS011;20624;55.870;26.506;2023-02-15T16:45:49;14.43;;;2.95;;
34359;SDS011;20624;55.870;26.506;2023-02-15T16:48:20;11.43;;;2.30;;
34359;SDS011;20624;55.870;26.506;2023-02-15T16:50:54;18.60;;;3.65;;
34359;SDS011;20624;55.870;26.506;2023-02-15T16:53:24;15.65;;;3.28;;
34359;SDS011;20624;55.870;26.506;2023-02-15T16:58:31;6.38;;;1.63;;
34359;SDS011;20624;55.870;26.506;2023-02-15T17:01:08;16.85;;;3.17;;
34359;SDS011;20624;55.870;26.506;2023-02-15T17:03:40;13.35;;;2.92;;
34359;SDS011;20624;55.870;26.506;2023-02-15T17:06:24;5.75;;;1.65;;
34359;SDS011;20624;55.870;26.506;2023-02-15T17:09:02;7.97;;;2.03;;
34359;SDS011;20624;55.870;26.506;2023-02-15T17:11:44;7.30;;;1.83;;
34359;SDS011;20624;55.870;26.506;2023-02-15T17:16:52;11.27;;;2.63;;
34359;SDS011;20624;55.870;26.506;2023-02-15T17:19:24;7.20;;;1.90;;
34359;SDS011;20624;55.870;26.506;2023-02-15T17:21:56;21.75;;;4.05;;
34359;SDS011;20624;55.870;26.506;2023-02-15T17:24:31;9.23;;;2.22;;
34359;SDS011;20624;55.870;26.506;2023-02-15T17:27:04;20.50;;;4.00;;
34359;SDS011;20624;55.870;26.506;2023-02-15T17:29:57;20.90;;;4.20;;
34359;SDS011;20624;55.870;26.506;2023-02-15T17:32:30;14.68;;;3.00;;
34359;SDS011;20624;55.870;26.506;2023-02-15T17:35:05;24.88;;;4.78;;
34359;SDS011;20624;55.870;26.506;2023-02-15T17:42:50;5.68;;;1.58;;
34359;SDS011;20624;55.870;26.506;2023-02-15T17:45:21;19.42;;;3.65;;
34359;SDS011;20624;55.870;26.506;2023-02-15T17:47:51;23.20;;;4.07;;
34359;SDS011;20624;55.870;26.506;2023-02-15T17:50:22;19.45;;;3.97;;
34359;SDS011;20624;55.870;26.506;2023-02-15T17:52:52;22.80;;;4.53;;
34359;SDS011;20624;55.870;26.506;2023-02-15T17:55:22;16.60;;;3.20;;
34359;SDS011;20624;55.870;26.506;2023-02-15T17:58:08;24.73;;;4.63;;
34359;SDS011;20624;55.870;26.506;2023-02-15T18:00:49;5.72;;;1.98;;
34359;SDS011;20624;55.870;26.506;2023-02-15T18:06:39;10.60;;;2.22;;
34359;SDS011;20624;55.870;26.506;2023-02-15T18:09:26;9.10;;;2.28;;
34359;SDS011;20624;55.870;26.506;2023-02-15T18:14:49;7.63;;;1.70;;
34359;SDS011;20624;55.870;26.506;2023-02-15T18:17:21;8.32;;;2.03;;
34359;SDS011;20624;55.870;26.506;2023-02-15T18:19:55;15.70;;;2.70;;
34359;SDS011;20624;55.870;26.506;2023-02-15T18:22:23;10.88;;;2.45;;
34359;SDS011;20624;55.870;26.506;2023-02-15T18:24:50;10.48;;;2.47;;
34359;SDS011;20624;55.870;26.506;2023-02-15T18:27:18;21.63;;;4.18;;
34359;SDS011;20624;55.870;26.506;2023-02-15T18:29:47;22.98;;;4.53;;
34359;SDS011;20624;55.870;26.506;2023-02-15T18:32:15;4.47;;;1.40;;
34359;SDS011;20624;55.870;26.506;2023-02-15T18:34:50;12.32;;;2.53;;
34359;SDS011;20624;55.870;26.506;2023-02-15T18:37:21;9.98;;;2.17;;
34359;SDS011;20624;55.870;26.506;2023-02-15T18:39:51;6.82;;;1.73;;
34359;SDS011;20624;55.870;26.506;2023-02-15T18:42:24;9.80;;;2.17;;
34359;SDS011;20624;55.870;26.506;2023-02-15T18:44:55;20.67;;;4.03;;